High Tide — D5AA7 — position and weather

sailwx.info

Track history (hours):
 
Tides and Currents Weather Stations Pressure Air Temp Water Temp Dewpoint Dewpoint Depression Visibility Wind Speed Wind Dir Waves Ship Positions

High Tide

Last reported at 2017-Jun-18 15:36 UTC. Time now 2017-Jun-26 02:09 UTC.
Position N 01°14' E 103°58'.

Length 183 m; draft 11.8 m.

Type: Tanker. MMSI: 636015337.

Date/timePositionNaut miles runAvg speedWind from/ knotsBaromVisibWave heightAir tempDewpointWater temp
2017-Jun-18 15:36N 01°14' E 103°58'113.3
2017-Jun-18 15:29N 01°13' E 103°57'511.2
2017-Jun-18 15:00N 01°11' E 103°52'9 9.0
2017-Jun-18 14:00N 01°06' E 103°44'612.2
2017-Jun-18 13:30N 01°03' E 103°39'612.7
2017-Jun-18 13:01N 01°06' E 103°34'3 6.2
2017-Jun-18 12:31N 01°09' E 103°33'4 8.0
2017-Jun-18 12:00N 01°13' E 103°34'3 5.7
2017-Jun-18 11:31N 01°15' E 103°35'1 0.5
2017-Jun-18 08:25N 01°17' E 103°36'0 0.0
2017-Jun-18 07:53N 01°17' E 103°36'0 0.0
2017-Jun-18 03:47N 01°16' E 103°36'0 0.0
2017-Jun-18 02:38N 01°16' E 103°36'0 0.2
2017-Jun-18 02:16N 01°16' E 103°36'0 0.0
2017-Jun-17 23:46N 01°17' E 103°36'0 0.0
2017-Jun-17 20:26N 01°17' E 103°36'0 0.0
2017-Jun-17 17:49N 01°17' E 103°35'0 0.0
2017-Jun-17 17:28N 01°17' E 103°35'0 0.0
2017-Jun-17 16:52N 01°17' E 103°35'0 0.0
2017-Jun-17 16:28N 01°17' E 103°35'0 0.1
2017-Jun-17 15:58N 01°17' E 103°35'0 0.0
2017-Jun-17 15:28N 01°17' E 103°35'0 0.0
2017-Jun-17 14:58N 01°17' E 103°35'0 0.0
2017-Jun-17 13:58N 01°17' E 103°35'0 0.0
2017-Jun-17 09:28N 01°17' E 103°36'0 0.0
2017-Jun-17 08:16N 01°17' E 103°36'0 0.0
2017-Jun-17 07:58N 01°17' E 103°36'0 0.0
2017-Jun-17 07:28N 01°17' E 103°36'0 0.0
2017-Jun-17 06:16N 01°17' E 103°36'0 0.2
2017-Jun-17 05:58N 01°17' E 103°35'0 0.7
2017-Jun-17 05:30N 01°16' E 103°36'0 0.7
2017-Jun-17 05:00N 01°16' E 103°36'0 0.1
2017-Jun-17 04:27N 01°16' E 103°36'0 0.1
2017-Jun-17 03:54N 01°16' E 103°36'0 0.1
2017-Jun-17 03:30N 01°16' E 103°36'0 0.1
2017-Jun-17 03:00N 01°16' E 103°36'0 0.0
2017-Jun-17 02:30N 01°16' E 103°36'0 0.0
2017-Jun-17 01:57N 01°16' E 103°36'0 0.0
2017-Jun-17 01:30N 01°16' E 103°36'0 0.1
2017-Jun-17 00:57N 01°16' E 103°36'0 0.0
2017-Jun-17 00:30N 01°16' E 103°36'0 0.0
2017-Jun-17 00:00N 01°16' E 103°36'0 0.0
2017-Jun-16 23:27N 01°16' E 103°36'0 0.0
2017-Jun-16 23:00N 01°16' E 103°36'0 0.0
2017-Jun-16 22:30N 01°16' E 103°36'0 0.0
2017-Jun-16 21:51N 01°16' E 103°36'0 0.0
2017-Jun-16 21:27N 01°16' E 103°36'0 0.0
2017-Jun-16 21:00N 01°16' E 103°36'0 0.0
2017-Jun-16 20:30N 01°16' E 103°36'0 0.1
2017-Jun-16 20:00N 01°16' E 103°36'0 0.0
2017-Jun-16 19:30N 01°16' E 103°36'0 0.1
2017-Jun-16 18:57N 01°16' E 103°36'0 0.0
2017-Jun-16 18:30N 01°16' E 103°36'0 0.1
2017-Jun-16 18:00N 01°16' E 103°36'0 0.0
2017-Jun-16 16:42N 01°16' E 103°36'0 0.0
2017-Jun-16 16:30N 01°16' E 103°36'0 0.0
2017-Jun-16 16:00N 01°16' E 103°36'0 0.1
2017-Jun-16 15:30N 01°16' E 103°36'0 0.2
2017-Jun-16 14:57N 01°16' E 103°36'0 0.1
2017-Jun-16 14:30N 01°16' E 103°36'0 0.1
2017-Jun-16 13:30N 01°16' E 103°36'0 0.1
2017-Jun-16 13:00N 01°16' E 103°36'0 0.3
2017-Jun-16 12:30N 01°16' E 103°36'0 0.0
2017-Jun-16 11:57N 01°16' E 103°36'0 0.0
2017-Jun-16 11:30N 01°16' E 103°36'0 0.1
2017-Jun-16 11:00N 01°16' E 103°36'0 0.1
2017-Jun-16 10:30N 01°16' E 103°36'0 0.1
2017-Jun-16 10:00N 01°16' E 103°36'1 1.9
2017-Jun-16 09:30N 01°15' E 103°36'3 6.3
2017-Jun-16 09:00N 01°12' E 103°36'2 3.5
2017-Jun-16 08:30N 01°12' E 103°38'2 4.8
2017-Jun-16 08:00N 01°11' E 103°40'3 5.5
2017-Jun-16 07:30N 01°09' E 103°42'3 5.0
2017-Jun-16 07:00N 01°09' E 103°45'3 6.3
2017-Jun-16 06:30N 01°10' E 103°47'4 8.0
2017-Jun-16 06:00N 01°12' E 103°51'5 9.1
2017-Jun-16 05:30N 01°14' E 103°55'610.6
2017-Jun-16 04:55N 01°16' E 104°01'  
2017-Jun-12 04:10N 01°14' E 103°59'213.9
2017-Jun-12 04:00N 01°13' E 103°57'712.8
2017-Jun-12 03:29N 01°11' E 103°50'2 4.7
2017-Jun-12 02:58N 01°13' E 103°49'0 0.1
2017-Jun-12 02:25N 01°13' E 103°49'0 0.0
2017-Jun-12 01:46N 01°13' E 103°49'0 0.1
2017-Jun-12 00:55N 01°13' E 103°49'0 0.0
2017-Jun-12 00:28N 01°13' E 103°49'0 0.0
2017-Jun-11 23:52N 01°13' E 103°49'0 0.0
2017-Jun-11 23:28N 01°13' E 103°49'0 0.0
2017-Jun-11 22:52N 01°13' E 103°49'0 0.0
2017-Jun-11 22:25N 01°13' E 103°49'0 0.0
2017-Jun-11 21:52N 01°13' E 103°49'0 0.0
2017-Jun-11 21:25N 01°13' E 103°49'0 0.0
2017-Jun-11 20:58N 01°13' E 103°49'0 0.0
2017-Jun-11 20:28N 01°13' E 103°49'0 0.0
2017-Jun-11 19:58N 01°13' E 103°49'0 0.0
2017-Jun-11 19:28N 01°13' E 103°49'0 0.0
2017-Jun-11 18:58N 01°13' E 103°49'0 0.0
2017-Jun-11 18:25N 01°13' E 103°49'0 0.0
2017-Jun-11 17:58N 01°13' E 103°49'0 0.1
2017-Jun-11 17:22N 01°13' E 103°49'0 0.0
2017-Jun-11 16:58N 01°13' E 103°49'0 0.0
2017-Jun-11 16:22N 01°13' E 103°49'0 0.1
2017-Jun-11 15:55N 01°13' E 103°49'0 0.1
2017-Jun-11 15:22N 01°13' E 103°49'0 0.1
2017-Jun-11 14:52N 01°13' E 103°49'0 0.0
2017-Jun-11 13:58N 01°13' E 103°49'0 0.1
2017-Jun-11 13:25N 01°13' E 103°48'0 0.1
2017-Jun-11 12:52N 01°13' E 103°49'0 0.2
2017-Jun-11 12:28N 01°13' E 103°48'0 0.0
2017-Jun-11 11:58N 01°13' E 103°48'0 0.0
2017-Jun-11 11:28N 01°13' E 103°48'0 0.1
2017-Jun-11 10:58N 01°13' E 103°49'0 0.2
2017-Jun-11 10:28N 01°13' E 103°48'0 0.2
2017-Jun-11 09:58N 01°13' E 103°49'0 0.0
2017-Jun-11 09:10N 01°13' E 103°49'0 0.3
2017-Jun-11 08:58N 01°13' E 103°48'0 0.1
2017-Jun-11 08:28N 01°13' E 103°49'0 0.0
2017-Jun-11 07:58N 01°13' E 103°49'0 0.1
2017-Jun-11 07:25N 01°13' E 103°48'0 0.2
2017-Jun-11 06:58N 01°13' E 103°49'0 0.0
2017-Jun-11 06:25N 01°13' E 103°49'0 0.0
2017-Jun-11 05:55N 01°13' E 103°49'0 0.0
2017-Jun-11 05:28N 01°13' E 103°49'0 0.0
2017-Jun-11 04:58N 01°13' E 103°49'0 0.1
2017-Jun-11 04:22N 01°13' E 103°49'0 0.2
2017-Jun-11 03:58N 01°13' E 103°49'0 0.1
2017-Jun-11 03:28N 01°13' E 103°49'0 0.1
2017-Jun-11 02:58N 01°13' E 103°49'0 0.0
2017-Jun-11 02:28N 01°13' E 103°49'0 0.0
2017-Jun-11 01:58N 01°13' E 103°49'0 0.0
2017-Jun-11 01:22N 01°13' E 103°49'0 0.0
2017-Jun-11 00:58N 01°13' E 103°49'0 0.0
2017-Jun-11 00:28N 01°13' E 103°49'0 0.0
2017-Jun-10 23:55N 01°13' E 103°49'0 0.0
2017-Jun-10 23:22N 01°13' E 103°49'0 0.0
2017-Jun-10 22:58N 01°13' E 103°49'0 0.1
2017-Jun-10 22:28N 01°13' E 103°49'0 0.0
2017-Jun-10 21:58N 01°13' E 103°49'0 0.0
2017-Jun-10 21:28N 01°13' E 103°49'0 0.0
2017-Jun-10 20:58N 01°13' E 103°49'0 0.0
2017-Jun-10 20:28N 01°13' E 103°49'0 0.0
2017-Jun-10 19:58N 01°13' E 103°49'0 0.0
2017-Jun-10 19:28N 01°13' E 103°49'0 0.0
2017-Jun-10 18:58N 01°13' E 103°49'0 0.0
2017-Jun-10 18:28N 01°13' E 103°49'0 0.0
2017-Jun-10 17:55N 01°13' E 103°49'0 0.1
2017-Jun-10 17:28N 01°13' E 103°49'0 0.1
2017-Jun-10 16:58N 01°13' E 103°49'0 0.0
2017-Jun-10 16:22N 01°13' E 103°49'0 0.1
2017-Jun-10 15:55N 01°13' E 103°49'0 0.2
2017-Jun-10 15:28N 01°13' E 103°49'0 0.1
2017-Jun-10 14:52N 01°13' E 103°49'0 0.1
2017-Jun-10 13:55N 01°13' E 103°49'0 0.1
2017-Jun-10 13:22N 01°13' E 103°49'0 0.1
2017-Jun-10 12:52N 01°13' E 103°48'0 0.2
2017-Jun-10 12:28N 01°13' E 103°48'0 0.2
2017-Jun-10 11:55N 01°13' E 103°48'0 0.0
2017-Jun-10 11:28N 01°13' E 103°48'0 0.2
2017-Jun-10 10:55N 01°13' E 103°48'0 0.2
2017-Jun-10 10:25N 01°13' E 103°48'0 0.0
2017-Jun-10 09:55N 01°13' E 103°48'0 0.0
2017-Jun-10 09:25N 01°13' E 103°48'0 0.0
2017-Jun-10 08:43N 01°13' E 103°48'0 0.2
2017-Jun-10 08:25N 01°13' E 103°49'0 0.1
2017-Jun-10 07:58N 01°13' E 103°48'0 0.0
2017-Jun-10 07:19N 01°13' E 103°48'0 0.1
2017-Jun-10 06:43N 01°13' E 103°48'0 0.1
2017-Jun-10 06:25N 01°13' E 103°48'0 0.3
2017-Jun-10 05:55N 01°13' E 103°49'0 0.1
2017-Jun-10 05:25N 01°13' E 103°49'0 0.2
2017-Jun-10 04:58N 01°13' E 103°48'0 0.0
2017-Jun-10 04:22N 01°13' E 103°48'0 0.0
2017-Jun-10 03:55N 01°13' E 103°48'0 0.0
2017-Jun-10 03:25N 01°13' E 103°48'0 0.0
2017-Jun-10 02:58N 01°13' E 103°48'0 0.0
2017-Jun-10 02:22N 01°13' E 103°48'0 0.0
2017-Jun-10 01:58N 01°13' E 103°48'0 0.0
2017-Jun-10 01:25N 01°13' E 103°48'0 0.1
2017-Jun-10 00:55N 01°13' E 103°49'0 0.0
2017-Jun-10 00:25N 01°13' E 103°49'0 0.1
2017-Jun-09 23:58N 01°13' E 103°49'0 0.0
2017-Jun-09 23:28N 01°13' E 103°49'0 0.1
2017-Jun-09 22:58N 01°13' E 103°49'0 0.0
2017-Jun-09 22:25N 01°13' E 103°49'0 0.0
2017-Jun-09 21:58N 01°13' E 103°49'0 0.0
2017-Jun-09 21:28N 01°13' E 103°49'0 0.0
2017-Jun-09 20:58N 01°13' E 103°49'0 0.0
2017-Jun-09 20:22N 01°13' E 103°49'0 0.1
2017-Jun-09 19:58N 01°13' E 103°49'0 0.0
2017-Jun-09 19:28N 01°13' E 103°49'0 0.0
2017-Jun-09 18:58N 01°13' E 103°49'0 0.0
2017-Jun-09 18:28N 01°13' E 103°49'0 0.1
2017-Jun-09 17:58N 01°13' E 103°49'0 0.2
2017-Jun-09 17:28N 01°13' E 103°49'0 0.2
2017-Jun-09 16:58N 01°13' E 103°49'0 0.1
2017-Jun-09 16:25N 01°13' E 103°49'0 0.1
2017-Jun-09 15:55N 01°13' E 103°48'0 0.0
2017-Jun-09 15:28N 01°13' E 103°48'0 0.0
2017-Jun-09 14:55N 01°13' E 103°48'0 0.0
2017-Jun-09 14:25N 01°13' E 103°48'0 0.0
2017-Jun-09 13:25N 01°13' E 103°48'0 0.1
2017-Jun-09 12:55N 01°13' E 103°49'0 0.1
2017-Jun-09 12:28N 01°13' E 103°48'0 0.1
2017-Jun-09 11:58N 01°13' E 103°48'0 0.0
2017-Jun-09 11:07N 01°13' E 103°48'0 0.1
2017-Jun-09 10:55N 01°13' E 103°48'0 0.2
2017-Jun-09 10:30N 01°13' E 103°48'4 8.0
2017-Jun-09 10:00N 01°15' E 103°45'612.2
2017-Jun-09 09:30N 01°12' E 103°39'4 7.6
2017-Jun-09 09:00N 01°12' E 103°35'2 3.5
2017-Jun-09 08:30N 01°13' E 103°34'2 4.0
2017-Jun-09 08:00N 01°14' E 103°32'3 5.7
2017-Jun-09 07:31N 01°17' E 103°33'5 9.7
2017-Jun-09 07:00N 01°21' E 103°33'  
Track history (hours):
 
Tides and Currents Weather Stations Pressure Air Temp Water Temp Dewpoint Dewpoint Depression Visibility Wind Speed Wind Dir Waves Ship Positions

High Tide

Last reported at 2017-Jun-18 15:36 UTC. Time now 2017-Jun-26 02:09 UTC.
Position N 01°14' E 103°58'.

Length 183 m; draft 11.8 m.

Type: Tanker. MMSI: 636015337.

Date/timePositionNaut miles runAvg speedWind from/ knotsBaromVisibWave heightAir tempDewpointWater temp
2017-Jun-18 15:36N 01°14' E 103°58'113.3
2017-Jun-18 15:29N 01°13' E 103°57'511.2
2017-Jun-18 15:00N 01°11' E 103°52'9 9.0
2017-Jun-18 14:00N 01°06' E 103°44'612.2
2017-Jun-18 13:30N 01°03' E 103°39'612.7
2017-Jun-18 13:01N 01°06' E 103°34'3 6.2
2017-Jun-18 12:31N 01°09' E 103°33'4 8.0
2017-Jun-18 12:00N 01°13' E 103°34'3 5.7
2017-Jun-18 11:31N 01°15' E 103°35'1 0.5
2017-Jun-18 08:25N 01°17' E 103°36'0 0.0
2017-Jun-18 07:53N 01°17' E 103°36'0 0.0
2017-Jun-18 03:47N 01°16' E 103°36'0 0.0
2017-Jun-18 02:38N 01°16' E 103°36'0 0.2
2017-Jun-18 02:16N 01°16' E 103°36'0 0.0
2017-Jun-17 23:46N 01°17' E 103°36'0 0.0
2017-Jun-17 20:26N 01°17' E 103°36'0 0.0
2017-Jun-17 17:49N 01°17' E 103°35'0 0.0
2017-Jun-17 17:28N 01°17' E 103°35'0 0.0
2017-Jun-17 16:52N 01°17' E 103°35'0 0.0
2017-Jun-17 16:28N 01°17' E 103°35'0 0.1
2017-Jun-17 15:58N 01°17' E 103°35'0 0.0
2017-Jun-17 15:28N 01°17' E 103°35'0 0.0
2017-Jun-17 14:58N 01°17' E 103°35'0 0.0
2017-Jun-17 13:58N 01°17' E 103°35'0 0.0
2017-Jun-17 09:28N 01°17' E 103°36'0 0.0
2017-Jun-17 08:16N 01°17' E 103°36'0 0.0
2017-Jun-17 07:58N 01°17' E 103°36'0 0.0
2017-Jun-17 07:28N 01°17' E 103°36'0 0.0
2017-Jun-17 06:16N 01°17' E 103°36'0 0.2
2017-Jun-17 05:58N 01°17' E 103°35'0 0.7
2017-Jun-17 05:30N 01°16' E 103°36'0 0.7
2017-Jun-17 05:00N 01°16' E 103°36'0 0.1
2017-Jun-17 04:27N 01°16' E 103°36'0 0.1
2017-Jun-17 03:54N 01°16' E 103°36'0 0.1
2017-Jun-17 03:30N 01°16' E 103°36'0 0.1
2017-Jun-17 03:00N 01°16' E 103°36'0 0.0
2017-Jun-17 02:30N 01°16' E 103°36'0 0.0
2017-Jun-17 01:57N 01°16' E 103°36'0 0.0
2017-Jun-17 01:30N 01°16' E 103°36'0 0.1
2017-Jun-17 00:57N 01°16' E 103°36'0 0.0
2017-Jun-17 00:30N 01°16' E 103°36'0 0.0
2017-Jun-17 00:00N 01°16' E 103°36'0 0.0
2017-Jun-16 23:27N 01°16' E 103°36'0 0.0
2017-Jun-16 23:00N 01°16' E 103°36'0 0.0
2017-Jun-16 22:30N 01°16' E 103°36'0 0.0
2017-Jun-16 21:51N 01°16' E 103°36'0 0.0
2017-Jun-16 21:27N 01°16' E 103°36'0 0.0
2017-Jun-16 21:00N 01°16' E 103°36'0 0.0
2017-Jun-16 20:30N 01°16' E 103°36'0 0.1
2017-Jun-16 20:00N 01°16' E 103°36'0 0.0
2017-Jun-16 19:30N 01°16' E 103°36'0 0.1
2017-Jun-16 18:57N 01°16' E 103°36'0 0.0
2017-Jun-16 18:30N 01°16' E 103°36'0 0.1
2017-Jun-16 18:00N 01°16' E 103°36'0 0.0
2017-Jun-16 16:42N 01°16' E 103°36'0 0.0
2017-Jun-16 16:30N 01°16' E 103°36'0 0.0
2017-Jun-16 16:00N 01°16' E 103°36'0 0.1
2017-Jun-16 15:30N 01°16' E 103°36'0 0.2
2017-Jun-16 14:57N 01°16' E 103°36'0 0.1
2017-Jun-16 14:30N 01°16' E 103°36'0 0.1
2017-Jun-16 13:30N 01°16' E 103°36'0 0.1
2017-Jun-16 13:00N 01°16' E 103°36'0 0.3
2017-Jun-16 12:30N 01°16' E 103°36'0 0.0
2017-Jun-16 11:57N 01°16' E 103°36'0 0.0
2017-Jun-16 11:30N 01°16' E 103°36'0 0.1
2017-Jun-16 11:00N 01°16' E 103°36'0 0.1
2017-Jun-16 10:30N 01°16' E 103°36'0 0.1
2017-Jun-16 10:00N 01°16' E 103°36'1 1.9
2017-Jun-16 09:30N 01°15' E 103°36'3 6.3
2017-Jun-16 09:00N 01°12' E 103°36'2 3.5
2017-Jun-16 08:30N 01°12' E 103°38'2 4.8
2017-Jun-16 08:00N 01°11' E 103°40'3 5.5
2017-Jun-16 07:30N 01°09' E 103°42'3 5.0
2017-Jun-16 07:00N 01°09' E 103°45'3 6.3
2017-Jun-16 06:30N 01°10' E 103°47'4 8.0
2017-Jun-16 06:00N 01°12' E 103°51'5 9.1
2017-Jun-16 05:30N 01°14' E 103°55'610.6
2017-Jun-16 04:55N 01°16' E 104°01'  
2017-Jun-12 04:10N 01°14' E 103°59'213.9
2017-Jun-12 04:00N 01°13' E 103°57'712.8
2017-Jun-12 03:29N 01°11' E 103°50'2 4.7
2017-Jun-12 02:58N 01°13' E 103°49'0 0.1
2017-Jun-12 02:25N 01°13' E 103°49'0 0.0
2017-Jun-12 01:46N 01°13' E 103°49'0 0.1
2017-Jun-12 00:55N 01°13' E 103°49'0 0.0
2017-Jun-12 00:28N 01°13' E 103°49'0 0.0
2017-Jun-11 23:52N 01°13' E 103°49'0 0.0
2017-Jun-11 23:28N 01°13' E 103°49'0 0.0
2017-Jun-11 22:52N 01°13' E 103°49'0 0.0
2017-Jun-11 22:25N 01°13' E 103°49'0 0.0
2017-Jun-11 21:52N 01°13' E 103°49'0 0.0
2017-Jun-11 21:25N 01°13' E 103°49'0 0.0
2017-Jun-11 20:58N 01°13' E 103°49'0 0.0
2017-Jun-11 20:28N 01°13' E 103°49'0 0.0
2017-Jun-11 19:58N 01°13' E 103°49'0 0.0
2017-Jun-11 19:28N 01°13' E 103°49'0 0.0
2017-Jun-11 18:58N 01°13' E 103°49'0 0.0
2017-Jun-11 18:25N 01°13' E 103°49'0 0.0
2017-Jun-11 17:58N 01°13' E 103°49'0 0.1
2017-Jun-11 17:22N 01°13' E 103°49'0 0.0
2017-Jun-11 16:58N 01°13' E 103°49'0 0.0
2017-Jun-11 16:22N 01°13' E 103°49'0 0.1
2017-Jun-11 15:55N 01°13' E 103°49'0 0.1
2017-Jun-11 15:22N 01°13' E 103°49'0 0.1
2017-Jun-11 14:52N 01°13' E 103°49'0 0.0
2017-Jun-11 13:58N 01°13' E 103°49'0 0.1
2017-Jun-11 13:25N 01°13' E 103°48'0 0.1
2017-Jun-11 12:52N 01°13' E 103°49'0 0.2
2017-Jun-11 12:28N 01°13' E 103°48'0 0.0
2017-Jun-11 11:58N 01°13' E 103°48'0 0.0
2017-Jun-11 11:28N 01°13' E 103°48'0 0.1
2017-Jun-11 10:58N 01°13' E 103°49'0 0.2
2017-Jun-11 10:28N 01°13' E 103°48'0 0.2
2017-Jun-11 09:58N 01°13' E 103°49'0 0.0
2017-Jun-11 09:10N 01°13' E 103°49'0 0.3
2017-Jun-11 08:58N 01°13' E 103°48'0 0.1
2017-Jun-11 08:28N 01°13' E 103°49'0 0.0
2017-Jun-11 07:58N 01°13' E 103°49'0 0.1
2017-Jun-11 07:25N 01°13' E 103°48'0 0.2
2017-Jun-11 06:58N 01°13' E 103°49'0 0.0
2017-Jun-11 06:25N 01°13' E 103°49'0 0.0
2017-Jun-11 05:55N 01°13' E 103°49'0 0.0
2017-Jun-11 05:28N 01°13' E 103°49'0 0.0
2017-Jun-11 04:58N 01°13' E 103°49'0 0.1
2017-Jun-11 04:22N 01°13' E 103°49'0 0.2
2017-Jun-11 03:58N 01°13' E 103°49'0 0.1
2017-Jun-11 03:28N 01°13' E 103°49'0 0.1
2017-Jun-11 02:58N 01°13' E 103°49'0 0.0
2017-Jun-11 02:28N 01°13' E 103°49'0 0.0
2017-Jun-11 01:58N 01°13' E 103°49'0 0.0
2017-Jun-11 01:22N 01°13' E 103°49'0 0.0
2017-Jun-11 00:58N 01°13' E 103°49'0 0.0
2017-Jun-11 00:28N 01°13' E 103°49'0 0.0
2017-Jun-10 23:55N 01°13' E 103°49'0 0.0
2017-Jun-10 23:22N 01°13' E 103°49'0 0.0
2017-Jun-10 22:58N 01°13' E 103°49'0 0.1
2017-Jun-10 22:28N 01°13' E 103°49'0 0.0
2017-Jun-10 21:58N 01°13' E 103°49'0 0.0
2017-Jun-10 21:28N 01°13' E 103°49'0 0.0
2017-Jun-10 20:58N 01°13' E 103°49'0 0.0
2017-Jun-10 20:28N 01°13' E 103°49'0 0.0
2017-Jun-10 19:58N 01°13' E 103°49'0 0.0
2017-Jun-10 19:28N 01°13' E 103°49'0 0.0
2017-Jun-10 18:58N 01°13' E 103°49'0 0.0
2017-Jun-10 18:28N 01°13' E 103°49'0 0.0
2017-Jun-10 17:55N 01°13' E 103°49'0 0.1
2017-Jun-10 17:28N 01°13' E 103°49'0 0.1
2017-Jun-10 16:58N 01°13' E 103°49'0 0.0
2017-Jun-10 16:22N 01°13' E 103°49'0 0.1
2017-Jun-10 15:55N 01°13' E 103°49'0 0.2
2017-Jun-10 15:28N 01°13' E 103°49'0 0.1
2017-Jun-10 14:52N 01°13' E 103°49'0 0.1
2017-Jun-10 13:55N 01°13' E 103°49'0 0.1
2017-Jun-10 13:22N 01°13' E 103°49'0 0.1
2017-Jun-10 12:52N 01°13' E 103°48'0 0.2
2017-Jun-10 12:28N 01°13' E 103°48'0 0.2
2017-Jun-10 11:55N 01°13' E 103°48'0 0.0
2017-Jun-10 11:28N 01°13' E 103°48'0 0.2
2017-Jun-10 10:55N 01°13' E 103°48'0 0.2
2017-Jun-10 10:25N 01°13' E 103°48'0 0.0
2017-Jun-10 09:55N 01°13' E 103°48'0 0.0
2017-Jun-10 09:25N 01°13' E 103°48'0 0.0
2017-Jun-10 08:43N 01°13' E 103°48'0 0.2
2017-Jun-10 08:25N 01°13' E 103°49'0 0.1
2017-Jun-10 07:58N 01°13' E 103°48'0 0.0
2017-Jun-10 07:19N 01°13' E 103°48'0 0.1
2017-Jun-10 06:43N 01°13' E 103°48'0 0.1
2017-Jun-10 06:25N 01°13' E 103°48'0 0.3
2017-Jun-10 05:55N 01°13' E 103°49'0 0.1
2017-Jun-10 05:25N 01°13' E 103°49'0 0.2
2017-Jun-10 04:58N 01°13' E 103°48'0 0.0
2017-Jun-10 04:22N 01°13' E 103°48'0 0.0
2017-Jun-10 03:55N 01°13' E 103°48'0 0.0
2017-Jun-10 03:25N 01°13' E 103°48'0 0.0
2017-Jun-10 02:58N 01°13' E 103°48'0 0.0
2017-Jun-10 02:22N 01°13' E 103°48'0 0.0
2017-Jun-10 01:58N 01°13' E 103°48'0 0.0
2017-Jun-10 01:25N 01°13' E 103°48'0 0.1
2017-Jun-10 00:55N 01°13' E 103°49'0 0.0
2017-Jun-10 00:25N 01°13' E 103°49'0 0.1
2017-Jun-09 23:58N 01°13' E 103°49'0 0.0
2017-Jun-09 23:28N 01°13' E 103°49'0 0.1
2017-Jun-09 22:58N 01°13' E 103°49'0 0.0
2017-Jun-09 22:25N 01°13' E 103°49'0 0.0
2017-Jun-09 21:58N 01°13' E 103°49'0 0.0
2017-Jun-09 21:28N 01°13' E 103°49'0 0.0
2017-Jun-09 20:58N 01°13' E 103°49'0 0.0
2017-Jun-09 20:22N 01°13' E 103°49'0 0.1
2017-Jun-09 19:58N 01°13' E 103°49'0 0.0
2017-Jun-09 19:28N 01°13' E 103°49'0 0.0
2017-Jun-09 18:58N 01°13' E 103°49'0 0.0
2017-Jun-09 18:28N 01°13' E 103°49'0 0.1
2017-Jun-09 17:58N 01°13' E 103°49'0 0.2
2017-Jun-09 17:28N 01°13' E 103°49'0 0.2
2017-Jun-09 16:58N 01°13' E 103°49'0 0.1
2017-Jun-09 16:25N 01°13' E 103°49'0 0.1
2017-Jun-09 15:55N 01°13' E 103°48'0 0.0
2017-Jun-09 15:28N 01°13' E 103°48'0 0.0
2017-Jun-09 14:55N 01°13' E 103°48'0 0.0
2017-Jun-09 14:25N 01°13' E 103°48'0 0.0
2017-Jun-09 13:25N 01°13' E 103°48'0 0.1
2017-Jun-09 12:55N 01°13' E 103°49'0 0.1
2017-Jun-09 12:28N 01°13' E 103°48'0 0.1
2017-Jun-09 11:58N 01°13' E 103°48'0 0.0
2017-Jun-09 11:07N 01°13' E 103°48'0 0.1
2017-Jun-09 10:55N 01°13' E 103°48'0 0.2
2017-Jun-09 10:30N 01°13' E 103°48'4 8.0
2017-Jun-09 10:00N 01°15' E 103°45'612.2
2017-Jun-09 09:30N 01°12' E 103°39'4 7.6
2017-Jun-09 09:00N 01°12' E 103°35'2 3.5
2017-Jun-09 08:30N 01°13' E 103°34'2 4.0
2017-Jun-09 08:00N 01°14' E 103°32'3 5.7
2017-Jun-09 07:31N 01°17' E 103°33'5 9.7
2017-Jun-09 07:00N 01°21' E 103°33'  

Dump ship's entire track history